sensor_id;sensor_type;location;lat;lon;timestamp;pressure;altitude;pressure_sealevel;temperature;humidity
69796;BME280;57073;45.650;9.612;2023-09-19T00:02:58;98927.47;;;19.26;71.67
69796;BME280;57073;45.650;9.612;2023-09-19T00:08:02;98917.06;;;19.28;71.93
69796;BME280;57073;45.650;9.612;2023-09-19T00:13:05;98915.63;;;19.31;71.45
69796;BME280;57073;45.650;9.612;2023-09-19T00:18:07;98917.38;;;19.27;71.99
69796;BME280;57073;45.650;9.612;2023-09-19T00:23:08;98919.28;;;19.26;72.17
69796;BME280;57073;45.650;9.612;2023-09-19T00:28:09;98912.56;;;19.18;71.79
69796;BME280;57073;45.650;9.612;2023-09-19T00:33:10;98911.94;;;19.08;71.28
69796;BME280;57073;45.650;9.612;2023-09-19T00:38:11;98901.53;;;19.10;71.47
69796;BME280;57073;45.650;9.612;2023-09-19T00:43:15;98898.00;;;19.09;71.65
69796;BME280;57073;45.650;9.612;2023-09-19T00:48:16;98904.88;;;19.07;71.32
69796;BME280;57073;45.650;9.612;2023-09-19T00:53:21;98910.13;;;18.89;71.96
69796;BME280;57073;45.650;9.612;2023-09-19T00:58:23;98901.66;;;19.05;71.40
69796;BME280;57073;45.650;9.612;2023-09-19T01:03:23;98911.41;;;18.92;71.40
69796;BME280;57073;45.650;9.612;2023-09-19T01:08:24;98914.78;;;19.02;70.87
69796;BME280;57073;45.650;9.612;2023-09-19T01:19:01;98925.81;;;18.97;70.81
69796;BME280;57073;45.650;9.612;2023-09-19T01:24:33;98923.19;;;18.92;70.09
69796;BME280;57073;45.650;9.612;2023-09-19T01:29:42;98937.00;;;18.82;70.12
69796;BME280;57073;45.650;9.612;2023-09-19T01:34:54;98925.59;;;18.80;69.80
69796;BME280;57073;45.650;9.612;2023-09-19T01:40:00;98927.88;;;18.73;69.42
69796;BME280;57073;45.650;9.612;2023-09-19T01:45:13;98931.72;;;18.72;69.50
69796;BME280;57073;45.650;9.612;2023-09-19T01:50:38;98938.31;;;18.71;69.66
69796;BME280;57073;45.650;9.612;2023-09-19T01:55:46;98938.97;;;18.62;69.76
69796;BME280;57073;45.650;9.612;2023-09-19T02:00:49;98934.34;;;18.63;69.77
69796;BME280;57073;45.650;9.612;2023-09-19T02:05:54;98929.09;;;18.67;69.39
69796;BME280;57073;45.650;9.612;2023-09-19T02:10:54;98926.16;;;18.63;69.68
69796;BME280;57073;45.650;9.612;2023-09-19T02:15:55;98924.31;;;18.58;69.63
69796;BME280;57073;45.650;9.612;2023-09-19T02:20:56;98935.22;;;18.58;69.39
69796;BME280;57073;45.650;9.612;2023-09-19T02:25:59;98941.19;;;18.60;69.79
69796;BME280;57073;45.650;9.612;2023-09-19T02:31:02;98938.56;;;18.55;69.62
69796;BME280;57073;45.650;9.612;2023-09-19T02:36:05;98937.38;;;18.61;69.73
69796;BME280;57073;45.650;9.612;2023-09-19T02:41:05;98942.84;;;18.61;69.73
69796;BME280;57073;45.650;9.612;2023-09-19T02:46:06;98935.94;;;18.50;69.48
69796;BME280;57073;45.650;9.612;2023-09-19T02:51:06;98927.19;;;18.48;69.29
69796;BME280;57073;45.650;9.612;2023-09-19T02:56:07;98933.28;;;18.45;69.51
69796;BME280;57073;45.650;9.612;2023-09-19T03:01:09;98943.59;;;18.48;69.26
69796;BME280;57073;45.650;9.612;2023-09-19T03:06:09;98937.66;;;18.41;69.44
69796;BME280;57073;45.650;9.612;2023-09-19T03:11:10;98929.47;;;18.41;70.05
69796;BME280;57073;45.650;9.612;2023-09-19T03:16:11;98925.22;;;18.35;70.23
69796;BME280;57073;45.650;9.612;2023-09-19T03:21:16;98918.66;;;18.36;70.21
69796;BME280;57073;45.650;9.612;2023-09-19T03:26:17;98916.59;;;18.28;70.42
69796;BME280;57073;45.650;9.612;2023-09-19T03:31:17;98916.97;;;18.21;70.45
69796;BME280;57073;45.650;9.612;2023-09-19T03:36:18;98915.00;;;18.27;70.40
69796;BME280;57073;45.650;9.612;2023-09-19T03:41:18;98907.09;;;18.25;69.69
69796;BME280;57073;45.650;9.612;2023-09-19T03:46:20;98907.38;;;18.23;70.13
69796;BME280;57073;45.650;9.612;2023-09-19T03:51:20;98916.41;;;18.05;71.38
69796;BME280;57073;45.650;9.612;2023-09-19T03:56:21;98907.78;;;17.98;71.44
69796;BME280;57073;45.650;9.612;2023-09-19T04:01:21;98903.47;;;17.92;71.69
69796;BME280;57073;45.650;9.612;2023-09-19T04:06:22;98906.72;;;17.94;71.02
69796;BME280;57073;45.650;9.612;2023-09-19T04:11:22;98904.75;;;17.99;70.75
69796;BME280;57073;45.650;9.612;2023-09-19T04:16:22;98909.44;;;17.94;70.94
69796;BME280;57073;45.650;9.612;2023-09-19T04:21:23;98919.19;;;18.00;71.08
69796;BME280;57073;45.650;9.612;2023-09-19T04:26:23;98923.31;;;17.97;71.11
69796;BME280;57073;45.650;9.612;2023-09-19T04:31:25;98929.22;;;17.85;70.93
69796;BME280;57073;45.650;9.612;2023-09-19T04:36:26;98939.22;;;17.90;71.78
69796;BME280;57073;45.650;9.612;2023-09-19T04:41:26;98941.09;;;17.95;70.61
69796;BME280;57073;45.650;9.612;2023-09-19T04:46:26;98944.00;;;17.79;70.69
69796;BME280;57073;45.650;9.612;2023-09-19T04:51:27;98947.84;;;17.97;69.14
69796;BME280;57073;45.650;9.612;2023-09-19T04:56:31;98945.34;;;17.82;69.92
69796;BME280;57073;45.650;9.612;2023-09-19T05:01:32;98959.72;;;18.06;67.97
69796;BME280;57073;45.650;9.612;2023-09-19T05:06:32;98956.94;;;17.93;68.14
69796;BME280;57073;45.650;9.612;2023-09-19T05:11:35;98968.88;;;17.97;67.85
69796;BME280;57073;45.650;9.612;2023-09-19T05:16:38;98962.06;;;17.75;68.02
69796;BME280;57073;45.650;9.612;2023-09-19T05:21:38;98975.47;;;17.96;67.75
69796;BME280;57073;45.650;9.612;2023-09-19T05:26:39;98974.28;;;18.02;67.26
69796;BME280;57073;45.650;9.612;2023-09-19T05:31:40;98981.66;;;18.01;66.71
69796;BME280;57073;45.650;9.612;2023-09-19T05:36:41;98987.97;;;17.97;67.72
69796;BME280;57073;45.650;9.612;2023-09-19T05:41:42;98981.94;;;18.00;67.92
69796;BME280;57073;45.650;9.612;2023-09-19T05:46:42;98989.31;;;18.18;67.36
69796;BME280;57073;45.650;9.612;2023-09-19T05:51:43;98993.06;;;18.22;67.23
69796;BME280;57073;45.650;9.612;2023-09-19T05:56:43;98995.66;;;18.33;66.96
69796;BME280;57073;45.650;9.612;2023-09-19T06:01:43;98996.53;;;18.28;66.93
69796;BME280;57073;45.650;9.612;2023-09-19T06:06:44;99010.22;;;18.47;66.70
69796;BME280;57073;45.650;9.612;2023-09-19T06:11:44;99024.91;;;18.51;66.65
69796;BME280;57073;45.650;9.612;2023-09-19T06:16:45;99023.47;;;18.73;65.95
69796;BME280;57073;45.650;9.612;2023-09-19T06:21:45;99028.88;;;19.11;65.34
69796;BME280;57073;45.650;9.612;2023-09-19T06:26:46;99024.19;;;19.44;64.31
69796;BME280;57073;45.650;9.612;2023-09-19T06:31:47;99019.94;;;19.80;64.14
69796;BME280;57073;45.650;9.612;2023-09-19T06:36:48;99015.88;;;19.91;62.61
69796;BME280;57073;45.650;9.612;2023-09-19T06:41:49;99015.03;;;20.32;61.68
69796;BME280;57073;45.650;9.612;2023-09-19T06:46:49;99016.09;;;20.67;61.52
69796;BME280;57073;45.650;9.612;2023-09-19T06:51:50;99022.69;;;20.80;59.31
69796;BME280;57073;45.650;9.612;2023-09-19T06:56:50;99027.53;;;21.06;59.58
69796;BME280;57073;45.650;9.612;2023-09-19T07:01:50;99040.03;;;21.21;58.99
69796;BME280;57073;45.650;9.612;2023-09-19T07:06:51;99044.06;;;21.23;59.85
69796;BME280;57073;45.650;9.612;2023-09-19T07:11:51;99051.91;;;21.39;58.25
69796;BME280;57073;45.650;9.612;2023-09-19T07:16:52;99057.22;;;21.66;58.74
69796;BME280;57073;45.650;9.612;2023-09-19T07:21:52;99058.19;;;22.19;57.06
69796;BME280;57073;45.650;9.612;2023-09-19T07:26:52;99059.72;;;22.43;55.27
69796;BME280;57073;45.650;9.612;2023-09-19T07:31:53;99059.75;;;22.69;53.79
69796;BME280;57073;45.650;9.612;2023-09-19T07:36:53;99050.81;;;22.81;53.10
69796;BME280;57073;45.650;9.612;2023-09-19T07:41:54;99062.78;;;23.11;51.89
69796;BME280;57073;45.650;9.612;2023-09-19T07:46:54;99069.91;;;22.86;52.09
69796;BME280;57073;45.650;9.612;2023-09-19T07:51:55;99076.38;;;23.08;51.98
69796;BME280;57073;45.650;9.612;2023-09-19T07:56:57;99090.34;;;23.58;51.65
69796;BME280;57073;45.650;9.612;2023-09-19T08:01:58;99076.13;;;23.95;51.14
69796;BME280;57073;45.650;9.612;2023-09-19T08:06:58;99082.59;;;23.99;49.38
69796;BME280;57073;45.650;9.612;2023-09-19T08:11:59;99090.16;;;24.41;50.91
69796;BME280;57073;45.650;9.612;2023-09-19T08:17:03;99085.88;;;24.22;49.08
69796;BME280;57073;45.650;9.612;2023-09-19T08:22:08;99087.19;;;24.46;49.34
69796;BME280;57073;45.650;9.612;2023-09-19T08:27:10;99083.81;;;24.91;49.91
69796;BME280;57073;45.650;9.612;2023-09-19T08:32:12;99076.78;;;24.94;49.22
69796;BME280;57073;45.650;9.612;2023-09-19T08:37:12;99084.50;;;24.79;48.15
69796;BME280;57073;45.650;9.612;2023-09-19T08:42:13;99094.38;;;24.59;46.95
69796;BME280;57073;45.650;9.612;2023-09-19T08:47:15;99090.38;;;24.99;49.00
69796;BME280;57073;45.650;9.612;2023-09-19T08:52:22;99094.38;;;25.22;47.46
69796;BME280;57073;45.650;9.612;2023-09-19T08:57:28;99093.94;;;25.33;48.03
69796;BME280;57073;45.650;9.612;2023-09-19T09:02:30;99100.06;;;25.38;47.75
69796;BME280;57073;45.650;9.612;2023-09-19T09:07:34;99090.13;;;25.58;48.77
69796;BME280;57073;45.650;9.612;2023-09-19T09:12:35;99093.81;;;25.75;48.12
69796;BME280;57073;45.650;9.612;2023-09-19T09:17:37;99091.41;;;25.85;48.14
69796;BME280;57073;45.650;9.612;2023-09-19T09:22:38;99096.59;;;25.87;47.93
69796;BME280;57073;45.650;9.612;2023-09-19T09:27:48;99093.03;;;25.74;47.21
69796;BME280;57073;45.650;9.612;2023-09-19T09:33:12;99084.97;;;25.81;47.89
69796;BME280;57073;45.650;9.612;2023-09-19T09:38:12;99082.09;;;25.65;48.24
69796;BME280;57073;45.650;9.612;2023-09-19T09:48:36;99085.66;;;25.78;48.03
69796;BME280;57073;45.650;9.612;2023-09-19T09:53:39;99090.75;;;25.89;48.45
69796;BME280;57073;45.650;9.612;2023-09-19T09:58:51;99081.03;;;25.58;47.28
69796;BME280;57073;45.650;9.612;2023-09-19T10:03:59;99070.00;;;25.58;48.16
69796;BME280;57073;45.650;9.612;2023-09-19T10:09:08;99072.94;;;25.53;47.82
69796;BME280;57073;45.650;9.612;2023-09-19T10:14:17;99070.63;;;25.42;47.70
69796;BME280;57073;45.650;9.612;2023-09-19T10:24:47;99070.38;;;25.23;48.27
69796;BME280;57073;45.650;9.612;2023-09-19T10:29:51;99073.66;;;25.16;48.36
69796;BME280;57073;45.650;9.612;2023-09-19T10:34:55;99077.69;;;25.19;48.63
69796;BME280;57073;45.650;9.612;2023-09-19T10:39:57;99079.97;;;25.17;49.48
69796;BME280;57073;45.650;9.612;2023-09-19T10:45:00;99076.50;;;25.07;50.12
69796;BME280;57073;45.650;9.612;2023-09-19T10:50:01;99077.69;;;25.19;50.33
69796;BME280;57073;45.650;9.612;2023-09-19T10:55:03;99077.00;;;25.22;50.85
69796;BME280;57073;45.650;9.612;2023-09-19T11:05:23;99067.06;;;24.96;50.27
69796;BME280;57073;45.650;9.612;2023-09-19T11:10:49;99062.00;;;24.98;50.69
69796;BME280;57073;45.650;9.612;2023-09-19T11:26:44;99053.88;;;24.60;49.48
69796;BME280;57073;45.650;9.612;2023-09-19T11:31:51;99050.63;;;24.79;50.37
69796;BME280;57073;45.650;9.612;2023-09-19T11:36:55;99047.63;;;24.50;49.80
69796;BME280;57073;45.650;9.612;2023-09-19T11:41:55;99041.50;;;24.66;50.10
69796;BME280;57073;45.650;9.612;2023-09-19T11:46:58;99042.22;;;24.75;49.89
69796;BME280;57073;45.650;9.612;2023-09-19T11:52:00;99035.50;;;24.64;50.15
69796;BME280;57073;45.650;9.612;2023-09-19T11:57:01;99037.50;;;24.76;50.42
69796;BME280;57073;45.650;9.612;2023-09-19T12:02:07;99040.53;;;24.83;50.60
69796;BME280;57073;45.650;9.612;2023-09-19T12:07:15;99038.47;;;24.80;50.43
69796;BME280;57073;45.650;9.612;2023-09-19T12:12:26;99029.97;;;24.85;50.18
69796;BME280;57073;45.650;9.612;2023-09-19T12:17:40;99025.84;;;25.12;49.37
69796;BME280;57073;45.650;9.612;2023-09-19T12:22:43;99024.81;;;25.17;49.22
69796;BME280;57073;45.650;9.612;2023-09-19T12:27:48;99014.59;;;25.29;49.88
69796;BME280;57073;45.650;9.612;2023-09-19T12:32:56;99008.72;;;25.19;49.79
69796;BME280;57073;45.650;9.612;2023-09-19T12:37:58;99015.81;;;25.07;48.85
69796;BME280;57073;45.650;9.612;2023-09-19T12:42:59;99004.22;;;25.14;48.93
69796;BME280;57073;45.650;9.612;2023-09-19T12:53:25;99003.91;;;25.16;48.34
69796;BME280;57073;45.650;9.612;2023-09-19T12:58:29;99008.69;;;25.06;47.29
69796;BME280;57073;45.650;9.612;2023-09-19T13:03:30;98999.38;;;25.11;47.17
69796;BME280;57073;45.650;9.612;2023-09-19T13:08:38;98987.22;;;25.12;47.32
69796;BME280;57073;45.650;9.612;2023-09-19T13:13:39;98991.13;;;25.11;47.34
69796;BME280;57073;45.650;9.612;2023-09-19T13:18:48;98991.84;;;24.87;46.92
69796;BME280;57073;45.650;9.612;2023-09-19T13:23:55;98993.03;;;24.98;47.86
69796;BME280;57073;45.650;9.612;2023-09-19T13:29:05;98992.13;;;25.06;47.42
69796;BME280;57073;45.650;9.612;2023-09-19T13:34:05;98976.88;;;25.09;47.32
69796;BME280;57073;45.650;9.612;2023-09-19T13:39:05;98973.06;;;25.01;46.45
69796;BME280;57073;45.650;9.612;2023-09-19T13:44:07;98971.44;;;25.00;46.45
69796;BME280;57073;45.650;9.612;2023-09-19T13:49:08;98968.94;;;25.07;46.77
69796;BME280;57073;45.650;9.612;2023-09-19T13:54:09;98973.41;;;25.00;47.13
69796;BME280;57073;45.650;9.612;2023-09-19T13:59:12;98968.59;;;25.09;47.48
69796;BME280;57073;45.650;9.612;2023-09-19T14:04:12;98962.72;;;25.10;47.47
69796;BME280;57073;45.650;9.612;2023-09-19T14:09:13;98964.00;;;25.13;47.60
69796;BME280;57073;45.650;9.612;2023-09-19T14:14:13;98956.41;;;25.22;47.18
69796;BME280;57073;45.650;9.612;2023-09-19T14:19:15;98957.25;;;25.23;46.86
69796;BME280;57073;45.650;9.612;2023-09-19T14:24:17;98952.84;;;25.22;47.40
69796;BME280;57073;45.650;9.612;2023-09-19T14:29:17;98954.81;;;25.21;46.99
69796;BME280;57073;45.650;9.612;2023-09-19T14:34:19;98948.72;;;25.28;47.08
69796;BME280;57073;45.650;9.612;2023-09-19T14:39:20;98959.63;;;25.24;46.67
69796;BME280;57073;45.650;9.612;2023-09-19T14:44:20;98958.03;;;25.23;46.19
69796;BME280;57073;45.650;9.612;2023-09-19T14:49:21;98958.47;;;25.13;45.11
69796;BME280;57073;45.650;9.612;2023-09-19T14:54:21;98967.09;;;25.24;45.47
69796;BME280;57073;45.650;9.612;2023-09-19T14:59:22;98977.69;;;25.22;46.31
69796;BME280;57073;45.650;9.612;2023-09-19T15:04:23;98977.00;;;25.25;45.90
69796;BME280;57073;45.650;9.612;2023-09-19T15:09:24;98978.38;;;25.31;45.51
69796;BME280;57073;45.650;9.612;2023-09-19T15:14:26;98973.91;;;25.26;46.44
69796;BME280;57073;45.650;9.612;2023-09-19T15:19:26;98968.41;;;25.26;45.85
69796;BME280;57073;45.650;9.612;2023-09-19T15:24:27;98976.06;;;25.21;46.26
69796;BME280;57073;45.650;9.612;2023-09-19T15:29:27;98976.88;;;25.34;46.21
69796;BME280;57073;45.650;9.612;2023-09-19T15:34:28;98989.41;;;25.19;45.40
69796;BME280;57073;45.650;9.612;2023-09-19T15:39:30;98988.69;;;25.09;45.83
69796;BME280;57073;45.650;9.612;2023-09-19T15:44:33;98993.06;;;25.10;45.32
69796;BME280;57073;45.650;9.612;2023-09-19T15:49:34;98997.88;;;25.14;46.04
69796;BME280;57073;45.650;9.612;2023-09-19T15:54:34;98983.38;;;25.04;46.21
69796;BME280;57073;45.650;9.612;2023-09-19T15:59:35;98993.53;;;25.13;46.32
69796;BME280;57073;45.650;9.612;2023-09-19T16:04:35;99001.69;;;25.09;45.85
69796;BME280;57073;45.650;9.612;2023-09-19T16:09:38;98994.66;;;25.11;45.94
69796;BME280;57073;45.650;9.612;2023-09-19T16:14:38;98995.38;;;25.08;45.74
69796;BME280;57073;45.650;9.612;2023-09-19T16:19:39;98996.59;;;24.99;45.98
69796;BME280;57073;45.650;9.612;2023-09-19T16:24:40;99006.50;;;25.00;45.95
69796;BME280;57073;45.650;9.612;2023-09-19T16:29:40;98995.13;;;25.01;45.52
69796;BME280;57073;45.650;9.612;2023-09-19T16:34:41;99000.44;;;24.85;45.53
69796;BME280;57073;45.650;9.612;2023-09-19T16:39:41;98996.88;;;24.85;46.00
69796;BME280;57073;45.650;9.612;2023-09-19T16:44:42;99007.38;;;24.91;46.17
69796;BME280;57073;45.650;9.612;2023-09-19T16:49:42;99015.38;;;24.84;46.50
69796;BME280;57073;45.650;9.612;2023-09-19T16:54:42;99022.72;;;24.80;45.88
69796;BME280;57073;45.650;9.612;2023-09-19T16:59:43;99018.91;;;24.72;46.15
69796;BME280;57073;45.650;9.612;2023-09-19T17:04:43;99028.91;;;24.77;47.09
69796;BME280;57073;45.650;9.612;2023-09-19T17:09:44;99036.69;;;24.75;47.41
69796;BME280;57073;45.650;9.612;2023-09-19T17:14:44;99038.19;;;24.72;47.28
69796;BME280;57073;45.650;9.612;2023-09-19T17:19:44;99040.94;;;24.72;47.23
69796;BME280;57073;45.650;9.612;2023-09-19T17:24:44;99042.28;;;24.66;47.11
69796;BME280;57073;45.650;9.612;2023-09-19T17:29:46;99042.38;;;24.58;48.22
69796;BME280;57073;45.650;9.612;2023-09-19T17:34:47;99056.56;;;24.47;47.69
69796;BME280;57073;45.650;9.612;2023-09-19T17:39:49;99061.84;;;24.31;47.81
69796;BME280;57073;45.650;9.612;2023-09-19T17:44:49;99064.47;;;24.28;48.30
69796;BME280;57073;45.650;9.612;2023-09-19T17:49:51;99066.91;;;24.21;48.29
69796;BME280;57073;45.650;9.612;2023-09-19T17:54:52;99079.41;;;24.18;48.48
69796;BME280;57073;45.650;9.612;2023-09-19T17:59:52;99081.75;;;24.07;48.30
69796;BME280;57073;45.650;9.612;2023-09-19T18:04:52;99079.78;;;24.08;48.70
69796;BME280;57073;45.650;9.612;2023-09-19T18:09:53;99082.28;;;23.92;49.66
69796;BME280;57073;45.650;9.612;2023-09-19T18:14:55;99087.06;;;23.74;50.93
69796;BME280;57073;45.650;9.612;2023-09-19T18:19:55;99087.44;;;23.64;51.05
69796;BME280;57073;45.650;9.612;2023-09-19T18:24:56;99089.19;;;23.59;51.40
69796;BME280;57073;45.650;9.612;2023-09-19T18:29:56;99096.84;;;23.63;52.06
69796;BME280;57073;45.650;9.612;2023-09-19T18:34:57;99097.44;;;23.59;51.89
69796;BME280;57073;45.650;9.612;2023-09-19T18:39:57;99099.94;;;23.44;51.95
69796;BME280;57073;45.650;9.612;2023-09-19T18:44:57;99108.69;;;23.46;51.37
69796;BME280;57073;45.650;9.612;2023-09-19T18:49:58;99109.94;;;23.48;52.39
69796;BME280;57073;45.650;9.612;2023-09-19T18:54:58;99117.56;;;23.51;51.79
69796;BME280;57073;45.650;9.612;2023-09-19T18:59:59;99127.63;;;23.47;52.14
69796;BME280;57073;45.650;9.612;2023-09-19T19:05:00;99115.31;;;23.45;52.63
69796;BME280;57073;45.650;9.612;2023-09-19T19:10:01;99124.06;;;23.38;52.54
69796;BME280;57073;45.650;9.612;2023-09-19T19:15:03;99128.44;;;23.30;53.61
69796;BME280;57073;45.650;9.612;2023-09-19T19:20:04;99136.72;;;22.95;54.65
69796;BME280;57073;45.650;9.612;2023-09-19T19:25:06;99140.44;;;22.99;54.11
69796;BME280;57073;45.650;9.612;2023-09-19T19:30:09;99140.28;;;22.96;54.30
69796;BME280;57073;45.650;9.612;2023-09-19T19:35:11;99138.31;;;22.88;54.92
69796;BME280;57073;45.650;9.612;2023-09-19T19:40:13;99142.34;;;22.90;54.35
69796;BME280;57073;45.650;9.612;2023-09-19T19:45:13;99149.31;;;22.88;54.38
69796;BME280;57073;45.650;9.612;2023-09-19T19:50:13;99153.00;;;22.83;53.59
69796;BME280;57073;45.650;9.612;2023-09-19T19:55:16;99156.06;;;22.64;54.37
69796;BME280;57073;45.650;9.612;2023-09-19T20:00:16;99155.53;;;22.36;56.73
69796;BME280;57073;45.650;9.612;2023-09-19T20:05:20;99166.34;;;22.32;56.98
69796;BME280;57073;45.650;9.612;2023-09-19T20:10:20;99163.00;;;22.13;56.97
69796;BME280;57073;45.650;9.612;2023-09-19T20:15:22;99171.75;;;22.15;57.34
69796;BME280;57073;45.650;9.612;2023-09-19T20:20:25;99169.84;;;21.93;57.79
69796;BME280;57073;45.650;9.612;2023-09-19T20:25:27;99172.94;;;21.91;57.64
69796;BME280;57073;45.650;9.612;2023-09-19T20:30:28;99178.06;;;21.84;57.40
69796;BME280;57073;45.650;9.612;2023-09-19T20:35:29;99174.09;;;21.67;58.22
69796;BME280;57073;45.650;9.612;2023-09-19T20:40:29;99178.94;;;21.71;57.67
69796;BME280;57073;45.650;9.612;2023-09-19T20:45:31;99182.34;;;21.67;56.91
69796;BME280;57073;45.650;9.612;2023-09-19T20:50:33;99186.94;;;21.58;57.53
69796;BME280;57073;45.650;9.612;2023-09-19T20:55:34;99195.91;;;21.50;57.97
69796;BME280;57073;45.650;9.612;2023-09-19T21:00:40;99195.84;;;21.41;58.09
69796;BME280;57073;45.650;9.612;2023-09-19T21:05:40;99187.13;;;21.39;57.39
69796;BME280;57073;45.650;9.612;2023-09-19T21:10:41;99200.63;;;21.36;58.00
69796;BME280;57073;45.650;9.612;2023-09-19T21:15:42;99204.19;;;21.36;58.08
69796;BME280;57073;45.650;9.612;2023-09-19T21:20:42;99206.84;;;21.27;58.10
69796;BME280;57073;45.650;9.612;2023-09-19T21:25:43;99199.50;;;21.14;58.29
69796;BME280;57073;45.650;9.612;2023-09-19T21:30:43;99207.59;;;21.19;58.33
69796;BME280;57073;45.650;9.612;2023-09-19T21:35:44;99213.69;;;21.16;58.02
69796;BME280;57073;45.650;9.612;2023-09-19T21:40:45;99208.03;;;21.13;58.34
69796;BME280;57073;45.650;9.612;2023-09-19T21:45:45;99204.59;;;21.07;58.46
69796;BME280;57073;45.650;9.612;2023-09-19T21:50:52;99210.19;;;21.02;58.60
69796;BME280;57073;45.650;9.612;2023-09-19T21:55:58;99213.13;;;21.05;58.10
69796;BME280;57073;45.650;9.612;2023-09-19T22:01:02;99201.56;;;20.95;58.48
69796;BME280;57073;45.650;9.612;2023-09-19T22:11:07;99211.22;;;20.78;58.87
69796;BME280;57073;45.650;9.612;2023-09-19T22:16:10;99222.28;;;20.73;59.28
69796;BME280;57073;45.650;9.612;2023-09-19T22:21:14;99238.22;;;20.71;59.48
69796;BME280;57073;45.650;9.612;2023-09-19T22:26:19;99235.72;;;20.61;60.51
69796;BME280;57073;45.650;9.612;2023-09-19T22:31:26;99228.59;;;20.60;59.90
69796;BME280;57073;45.650;9.612;2023-09-19T22:36:31;99241.16;;;20.74;58.52
69796;BME280;57073;45.650;9.612;2023-09-19T22:41:38;99247.66;;;20.65;60.21
69796;BME280;57073;45.650;9.612;2023-09-19T22:46:39;99243.69;;;20.71;59.39
69796;BME280;57073;45.650;9.612;2023-09-19T22:51:43;99245.44;;;20.67;58.67
69796;BME280;57073;45.650;9.612;2023-09-19T22:56:52;99255.38;;;20.63;59.14
69796;BME280;57073;45.650;9.612;2023-09-19T23:01:52;99257.81;;;20.64;59.48
69796;BME280;57073;45.650;9.612;2023-09-19T23:06:53;99273.44;;;20.64;58.80
69796;BME280;57073;45.650;9.612;2023-09-19T23:11:55;99265.00;;;20.60;59.24
69796;BME280;57073;45.650;9.612;2023-09-19T23:16:56;99278.09;;;20.49;59.36
69796;BME280;57073;45.650;9.612;2023-09-19T23:21:58;99279.25;;;20.62;58.81
69796;BME280;57073;45.650;9.612;2023-09-19T23:27:06;99269.09;;;20.63;58.71
69796;BME280;57073;45.650;9.612;2023-09-19T23:32:06;99265.94;;;20.56;58.54
69796;BME280;57073;45.650;9.612;2023-09-19T23:37:08;99276.28;;;20.59;58.27
69796;BME280;57073;45.650;9.612;2023-09-19T23:42:09;99280.13;;;20.58;58.74
69796;BME280;57073;45.650;9.612;2023-09-19T23:47:12;99283.47;;;20.54;58.63
69796;BME280;57073;45.650;9.612;2023-09-19T23:52:13;99278.09;;;20.49;58.61
69796;BME280;57073;45.650;9.612;2023-09-19T23:57:13;99276.47;;;20.48;58.18
